Time;durP1;ratioP1;P1;durP2;ratioP2;P2;SDS_P1;SDS_P2;PMS_P1;PMS_P2;Temp;Humidity;BMP_temperature;BMP_pressure;BME280_temperature;BME280_humidity;BME280_pressure;Samples;Min_cycle;Max_cycle;Signal;HPM_P1;HPM_P2
2020/12/11 00:00:21;;;;;;;65.47;31.88;;;1.60;99.90;;;;;;4921173;29;20032;-85
2020/12/11 00:03:06;;;;;;;;;;;;;;;;;;;;;
2020/12/11 00:05:35;;;;;;;59.17;31.95;;;1.60;99.90;;;;;;4954297;29;20062;-85
2020/12/11 00:08:09;;;;;;;58.97;31.17;;;1.70;99.90;;;;;;4941722;29;20043;-86
2020/12/11 00:11:11;;;;;;;57.13;32.20;;;1.60;99.90;;;;;;4958290;28;20083;-86
2020/12/11 00:13:57;;;;;;;55.88;31.58;;;1.70;99.90;;;;;;5087451;23;20043;-87
2020/12/11 00:16:26;;;;;;;60.17;32.53;;;1.70;99.90;;;;;;4944108;29;20095;-87
2020/12/11 00:18:52;;;;;;;56.58;31.48;;;1.60;99.90;;;;;;4927768;29;20055;-88
2020/12/11 00:21:20;;;;;;;57.65;31.35;;;1.60;99.90;;;;;;4943585;29;20123;-90
2020/12/11 00:23:46;;;;;;;57.95;31.70;;;1.60;99.90;;;;;;4943377;29;20020;-86
2020/12/11 00:26:14;;;;;;;57.90;31.90;;;1.60;99.90;;;;;;4943485;29;20043;-85
2020/12/11 00:28:41;;;;;;;62.47;34.92;;;1.60;99.90;;;;;;4958639;29;20008;-86
2020/12/11 00:31:10;;;;;;;60.13;33.30;;;1.60;99.90;;;;;;4925077;29;20059;-86
2020/12/11 00:33:37;;;;;;;71.90;36.67;;;1.60;99.90;;;;;;4958878;29;20016;-86
2020/12/11 00:36:05;;;;;;;60.00;33.35;;;1.50;99.90;;;;;;4927711;29;20027;-87
2020/12/11 00:38:42;;;;;;;63.53;33.53;;;1.50;99.90;;;;;;4927493;29;20047;-88
2020/12/11 00:41:08;;;;;;;62.85;32.83;;;1.60;99.90;;;;;;4928550;29;20088;-86
2020/12/11 00:43:36;;;;;;;59.67;32.03;;;1.60;99.90;;;;;;4942985;29;20026;-86
2020/12/11 00:46:04;;;;;;;59.75;34.88;;;1.60;99.90;;;;;;4943326;29;20012;-87
2020/12/11 00:48:32;;;;;;;57.85;33.33;;;1.60;99.90;;;;;;4943128;29;20040;-87
2020/12/11 00:51:01;;;;;;;57.75;33.05;;;1.60;99.90;;;;;;4959450;29;20039;-86
2020/12/11 00:53:29;;;;;;;57.78;34.97;;;1.60;99.90;;;;;;4943355;29;20011;-91
2020/12/11 00:55:58;;;;;;;54.55;32.55;;;1.60;99.90;;;;;;4943383;29;20042;-86
2020/12/11 00:58:27;;;;;;;54.53;31.33;;;1.60;99.90;;;;;;4940538;29;20063;-87
2020/12/11 01:00:55;;;;;;;55.28;31.33;;;1.60;99.90;;;;;;4940830;29;20024;-86
2020/12/11 01:03:46;;;;;;;56.85;31.42;;;1.60;99.90;;;;;;4943172;29;20052;-85
2020/12/11 01:06:13;;;;;;;55.35;31.92;;;1.60;99.90;;;;;;4927665;29;20036;-87
2020/12/11 01:08:39;;;;;;;56.42;31.52;;;1.60;99.90;;;;;;4928669;29;20597;-86
2020/12/11 01:11:07;;;;;;;52.72;31.10;;;1.60;99.90;;;;;;4907256;29;20044;-87
2020/12/11 01:13:32;;;;;;;55.80;32.30;;;1.60;99.90;;;;;;4902784;29;20423;-86
2020/12/11 01:15:58;;;;;;;54.67;31.92;;;1.60;99.90;;;;;;4903191;29;20068;-85
2020/12/11 01:18:25;;;;;;;53.05;30.40;;;1.60;99.90;;;;;;4903137;29;20055;-86
2020/12/11 01:20:54;;;;;;;56.80;32.13;;;1.60;99.90;;;;;;4902928;29;20051;-87
2020/12/11 01:23:22;;;;;;;49.67;29.13;;;1.60;99.90;;;;;;4903755;29;20541;-86
2020/12/11 01:25:48;;;;;;;57.30;30.67;;;1.60;99.90;;;;;;4903658;29;20071;-84
2020/12/11 01:28:15;;;;;;;53.67;31.77;;;1.60;99.90;;;;;;4902766;29;20434;-86
2020/12/11 01:30:41;;;;;;;54.05;30.27;;;1.60;99.90;;;;;;4902874;29;20060;-85
2020/12/11 01:33:07;;;;;;;53.83;30.00;;;1.60;99.90;;;;;;4903334;29;20071;-87
2020/12/11 01:35:35;;;;;;;56.35;30.75;;;1.60;99.90;;;;;;4916878;29;20084;-85
2020/12/11 01:38:06;;;;;;;59.72;31.63;;;1.50;99.90;;;;;;4919429;29;20032;-87
2020/12/11 01:40:40;;;;;;;54.03;31.00;;;1.50;99.90;;;;;;4919831;29;20447;-86
2020/12/11 01:43:11;;;;;;;61.72;30.88;;;1.50;99.90;;;;;;4921369;29;20125;-86
2020/12/11 01:45:39;;;;;;;53.30;30.17;;;1.50;99.90;;;;;;4918893;29;20498;-87
2020/12/11 01:48:09;;;;;;;60.67;30.30;;;1.50;99.90;;;;;;4919552;29;20040;-86
2020/12/11 01:50:35;;;;;;;54.78;31.13;;;1.50;99.90;;;;;;4919536;29;20028;-86
2020/12/11 01:53:10;;;;;;;54.88;30.90;;;1.50;99.90;;;;;;4920004;29;20442;-87
2020/12/11 01:55:39;;;;;;;51.15;30.17;;;1.40;99.90;;;;;;4920556;29;20650;-85
2020/12/11 01:58:18;;;;;;;57.83;32.00;;;1.40;99.90;;;;;;4900410;29;20048;-85
2020/12/11 02:00:59;;;;;;;54.05;31.42;;;1.40;99.90;;;;;;4911262;29;20037;-88
2020/12/11 02:03:27;;;;;;;52.38;29.83;;;1.40;99.90;;;;;;4925220;29;20471;-89
2020/12/11 02:05:52;;;;;;;55.05;31.83;;;1.50;99.90;;;;;;4924852;29;20103;-88
2020/12/11 02:08:19;;;;;;;53.47;30.25;;;1.40;99.90;;;;;;4921824;29;20076;-86
2020/12/11 02:10:47;;;;;;;54.72;32.35;;;1.40;99.90;;;;;;4904052;29;20131;-85
2020/12/11 02:13:21;;;;;;;53.20;30.20;;;1.40;99.90;;;;;;4920122;29;20036;-85
2020/12/11 02:15:49;;;;;;;55.80;31.73;;;1.30;99.90;;;;;;4907164;29;20048;-87
2020/12/11 02:18:16;;;;;;;53.35;31.83;;;1.40;99.90;;;;;;4923034;29;20036;-86
2020/12/11 02:20:53;;;;;;;53.47;29.70;;;1.30;99.90;;;;;;4923035;29;20416;-86
2020/12/11 02:23:22;;;;;;;51.50;29.83;;;1.40;99.90;;;;;;4922624;29;20111;-86
2020/12/11 02:25:51;;;;;;;58.85;31.77;;;1.40;99.90;;;;;;4922538;29;20075;-86
2020/12/11 02:28:18;;;;;;;58.05;32.17;;;1.30;99.90;;;;;;4939076;29;20035;-86
2020/12/11 02:30:44;;;;;;;59.65;32.47;;;1.30;99.90;;;;;;4906662;29;20032;-86
2020/12/11 02:33:18;;;;;;;56.08;31.83;;;1.30;99.90;;;;;;4938793;29;20458;-86
2020/12/11 02:35:50;;;;;;;54.90;31.27;;;1.40;99.90;;;;;;4939030;29;20035;-85
2020/12/11 02:38:16;;;;;;;59.90;33.47;;;1.40;99.90;;;;;;4906089;29;20410;-86
2020/12/11 02:41:01;;;;;;;50.97;30.20;;;1.30;99.90;;;;;;4921826;29;20034;-85
2020/12/11 02:43:36;;;;;;;50.35;30.08;;;1.30;99.90;;;;;;4921726;29;20036;-87
2020/12/11 02:46:02;;;;;;;;;;;1.30;99.90;;;;;;4907772;29;20060;-87
2020/12/11 02:48:37;;;;;;;55.72;32.03;;;1.30;99.90;;;;;;4938081;29;19907;-88
2020/12/11 02:51:07;;;;;;;56.28;33.65;;;1.30;99.90;;;;;;4921346;29;20035;-86
2020/12/11 02:53:33;;;;;;;57.92;31.77;;;1.30;99.90;;;;;;4921551;29;20132;-88
2020/12/11 02:56:02;;;;;;;56.90;32.92;;;1.20;99.90;;;;;;4921683;29;20051;-86
2020/12/11 02:58:28;;;;;;;55.28;31.95;;;1.20;99.90;;;;;;4921374;29;20039;-88
2020/12/11 03:00:54;;;;;;;55.00;31.23;;;1.20;99.90;;;;;;4921646;29;20035;-88
2020/12/11 03:03:22;;;;;;;56.10;29.50;;;1.20;99.90;;;;;;4920269;29;20059;-87
2020/12/11 03:05:49;;;;;;;54.65;31.23;;;1.20;99.90;;;;;;4938188;29;20078;-87
2020/12/11 03:08:17;;;;;;;51.50;30.23;;;1.20;99.90;;;;;;4905405;29;20414;-87
2020/12/11 03:11:01;;;;;;;50.22;29.67;;;1.20;99.90;;;;;;4920896;29;20398;-87
2020/12/11 03:13:30;;;;;;;55.63;31.13;;;1.20;99.90;;;;;;4920180;29;20051;-86
2020/12/11 03:16:04;;;;;;;52.92;30.15;;;1.20;99.90;;;;;;4905965;29;20048;-86
2020/12/11 03:18:30;;;;;;;50.70;31.97;;;1.20;99.90;;;;;;4936281;29;20028;-84
2020/12/11 03:20:58;;;;;;;51.88;30.25;;;1.10;99.90;;;;;;4940585;29;20280;-87
2020/12/11 03:23:49;;;;;;;53.65;31.35;;;1.10;99.90;;;;;;4911807;29;20100;-86
2020/12/11 03:26:16;;;;;;;52.90;30.15;;;1.10;99.90;;;;;;4888817;29;20041;-87
2020/12/11 03:28:42;;;;;;;54.13;30.15;;;1.10;99.90;;;;;;4881541;29;20047;-86
2020/12/11 03:31:11;;;;;;;50.85;30.13;;;1.10;99.90;;;;;;4882034;29;20032;-87
2020/12/11 03:33:39;;;;;;;49.60;30.35;;;1.20;99.90;;;;;;4881649;29;20044;-87
2020/12/11 03:36:08;;;;;;;52.17;29.48;;;1.10;99.90;;;;;;4867033;29;20028;-86
2020/12/11 03:38:39;;;;;;;51.22;30.08;;;1.10;99.90;;;;;;4866858;29;20041;-87
2020/12/11 03:41:05;;;;;;;52.17;29.85;;;1.10;99.90;;;;;;4881690;29;20091;-85
2020/12/11 03:43:31;;;;;;;48.45;29.17;;;1.20;99.90;;;;;;4882027;29;20416;-87
2020/12/11 03:46:00;;;;;;;49.88;30.63;;;1.10;99.90;;;;;;4867932;29;20061;-85
2020/12/11 03:48:26;;;;;;;47.65;28.25;;;1.20;99.90;;;;;;4881355;29;20048;-85
2020/12/11 03:50:52;;;;;;;51.38;30.98;;;1.10;99.90;;;;;;4890115;29;20411;-87
2020/12/11 03:53:19;;;;;;;48.50;29.45;;;1.10;99.90;;;;;;4867679;29;20032;-86
2020/12/11 03:55:44;;;;;;;51.17;27.88;;;1.10;99.90;;;;;;4866862;29;20040;-87
2020/12/11 03:58:10;;;;;;;50.95;28.42;;;1.10;99.90;;;;;;4866502;29;20052;-85
2020/12/11 04:00:36;;;;;;;46.65;27.17;;;1.10;99.90;;;;;;4881803;29;20368;-88
2020/12/11 04:03:04;;;;;;;47.85;27.98;;;1.10;99.90;;;;;;4881619;29;20387;-85
2020/12/11 04:05:32;;;;;;;49.78;29.05;;;1.10;99.90;;;;;;4881262;29;20123;-86
2020/12/11 04:07:58;;;;;;;46.15;28.25;;;1.10;99.90;;;;;;4897343;29;20111;-85
2020/12/11 04:10:23;;;;;;;46.28;27.15;;;1.10;99.90;;;;;;4906369;29;20127;-87
2020/12/11 04:12:55;;;;;;;44.70;26.77;;;1.10;99.90;;;;;;4920478;29;20052;-86
2020/12/11 04:15:21;;;;;;;49.22;28.25;;;1.00;99.90;;;;;;4901593;29;20103;-87
2020/12/11 04:17:54;;;;;;;46.42;27.13;;;1.10;99.90;;;;;;4917429;29;20039;-87
2020/12/11 04:20:20;;;;;;;50.90;27.75;;;1.00;99.90;;;;;;4902582;29;20107;-86
2020/12/11 04:22:52;;;;;;;46.70;27.27;;;1.10;99.90;;;;;;4917779;29;20043;-87
2020/12/11 04:25:20;;;;;;;43.63;25.23;;;1.10;99.90;;;;;;4902992;29;20036;-86
2020/12/11 04:27:47;;;;;;;45.55;25.60;;;1.10;99.90;;;;;;4922972;29;20036;-85
2020/12/11 04:30:19;;;;;;;46.10;26.13;;;1.10;99.90;;;;;;4907788;29;20032;-86
2020/12/11 04:32:49;;;;;;;45.90;26.77;;;1.10;99.90;;;;;;4918387;29;20084;-87
2020/12/11 04:35:20;;;;;;;48.17;27.63;;;1.10;99.90;;;;;;4918456;29;20474;-86
2020/12/11 04:37:48;;;;;;;45.75;27.33;;;1.10;99.90;;;;;;4904657;29;20111;-88
2020/12/11 04:40:16;;;;;;;44.17;26.85;;;1.10;99.90;;;;;;4921174;29;20040;-86
2020/12/11 04:42:46;;;;;;;46.05;26.95;;;1.10;99.90;;;;;;4905349;29;20056;-86
2020/12/11 04:45:15;;;;;;;50.63;27.90;;;1.10;99.90;;;;;;4921015;29;20025;-87
2020/12/11 04:47:45;;;;;;;49.13;27.70;;;1.10;99.90;;;;;;4921365;29;20091;-88
2020/12/11 04:50:17;;;;;;;47.10;27.23;;;1.10;99.90;;;;;;4920226;29;20036;-85
2020/12/11 04:52:49;;;;;;;46.05;26.98;;;1.10;99.90;;;;;;4904620;29;20039;-88
2020/12/11 04:55:21;;;;;;;48.15;27.05;;;1.20;99.90;;;;;;4920671;29;20083;-86
2020/12/11 04:57:55;;;;;;;42.30;25.83;;;1.20;99.90;;;;;;4903306;29;20075;-85
2020/12/11 05:00:26;;;;;;;47.03;26.80;;;1.20;99.90;;;;;;4905120;29;20032;-86
2020/12/11 05:03:06;;;;;;;45.13;26.50;;;1.20;99.90;;;;;;4921227;29;20024;-86
2020/12/11 05:05:47;;;;;;;48.38;27.90;;;1.20;99.90;;;;;;4909481;29;20040;-86
2020/12/11 05:08:18;;;;;;;45.65;27.90;;;1.20;99.90;;;;;;4921600;29;20115;-86
2020/12/11 05:10:54;;;;;;;45.63;27.95;;;1.20;99.90;;;;;;4919967;29;20521;-87
2020/12/11 05:13:32;;;;;;;44.45;25.90;;;1.20;99.90;;;;;;4919962;29;20035;-85
2020/12/11 05:16:11;;;;;;;47.83;27.10;;;1.30;99.90;;;;;;4919504;29;20052;-86
2020/12/11 05:18:47;;;;;;;61.97;28.05;;;1.30;99.90;;;;;;4919606;29;20036;-85
2020/12/11 05:21:32;;;;;;;46.70;27.67;;;1.40;99.90;;;;;;4921044;29;20032;-87
2020/12/11 05:24:19;;;;;;;45.78;28.40;;;1.40;99.90;;;;;;4920129;29;20525;-86
2020/12/11 05:26:51;;;;;;;46.67;26.40;;;1.50;99.90;;;;;;4920254;29;20032;-84
2020/12/11 05:29:33;;;;;;;43.40;25.85;;;1.50;99.90;;;;;;4921481;29;20028;-86
2020/12/11 05:32:02;;;;;;;46.90;27.27;;;1.50;99.90;;;;;;4904411;29;20475;-87
2020/12/11 05:34:32;;;;;;;45.63;26.67;;;1.50;99.90;;;;;;4903758;29;20076;-87
2020/12/11 05:37:02;;;;;;;45.25;26.55;;;1.50;99.90;;;;;;4921001;29;20032;-85
2020/12/11 05:39:35;;;;;;;47.10;26.95;;;1.50;99.90;;;;;;4904358;29;20052;-87
2020/12/11 05:42:16;;;;;;;47.70;27.35;;;1.60;99.90;;;;;;4921358;29;20042;-87
2020/12/11 05:44:42;;;;;;;47.90;28.35;;;1.50;99.90;;;;;;4920223;29;20024;-85
2020/12/11 05:47:28;;;;;;;49.25;27.55;;;1.50;99.90;;;;;;4918686;29;20039;-88
2020/12/11 05:49:54;;;;;;;48.15;28.10;;;1.50;99.90;;;;;;4920160;29;20035;-87
2020/12/11 05:52:26;;;;;;;45.78;27.38;;;1.50;99.90;;;;;;4920293;29;20032;-86
2020/12/11 05:54:55;;;;;;;46.80;26.65;;;1.60;99.90;;;;;;4927307;29;20036;-88
2020/12/11 05:57:27;;;;;;;42.80;26.20;;;1.60;99.90;;;;;;4925310;29;20028;-85
2020/12/11 05:59:57;;;;;;;41.97;25.35;;;1.60;99.90;;;;;;4930938;29;20095;-87
2020/12/11 06:02:25;;;;;;;44.50;26.98;;;1.60;99.90;;;;;;4909609;29;20108;-85
2020/12/11 06:04:55;;;;;;;44.88;26.92;;;1.70;99.90;;;;;;4905090;29;20135;-87
2020/12/11 06:07:27;;;;;;;45.40;25.80;;;1.70;99.90;;;;;;4920588;29;20138;-86
2020/12/11 06:09:57;;;;;;;40.78;24.95;;;1.70;99.90;;;;;;4919688;29;20028;-85
2020/12/11 06:12:34;;;;;;;42.80;26.48;;;1.80;99.90;;;;;;4919067;29;20084;-87
2020/12/11 06:15:21;;;;;;;44.63;25.17;;;1.80;99.90;;;;;;4915662;29;20080;-86
2020/12/11 06:18:12;;;;;;;40.55;25.63;;;1.80;99.90;;;;;;4918633;29;20529;-87
2020/12/11 06:20:47;;;;;;;39.75;24.80;;;1.80;99.90;;;;;;4918941;29;20028;-87
2020/12/11 06:23:30;;;;;;;40.58;25.08;;;1.80;99.90;;;;;;4918592;29;20111;-85
2020/12/11 06:25:58;;;;;;;42.10;26.25;;;1.80;99.90;;;;;;4918754;29;20047;-86
2020/12/11 06:28:38;;;;;;;44.40;25.95;;;1.80;99.90;;;;;;4905619;29;20040;-86
2020/12/11 06:31:26;;;;;;;44.30;26.60;;;1.80;99.90;;;;;;4923756;29;20415;-86
2020/12/11 06:34:01;;;;;;;39.78;24.92;;;1.80;99.90;;;;;;4938035;29;20031;-86
2020/12/11 06:36:26;;;;;;;38.67;23.92;;;1.80;99.90;;;;;;4922135;29;20028;-87
2020/12/11 06:39:02;;;;;;;40.03;25.60;;;1.80;99.90;;;;;;4938347;29;20067;-90
2020/12/11 06:41:28;;;;;;;42.00;24.83;;;1.80;99.90;;;;;;4938786;29;20084;-87
2020/12/11 06:44:10;;;;;;;42.13;25.38;;;1.90;99.90;;;;;;4939449;29;20012;-88
2020/12/11 06:46:38;;;;;;;39.92;24.83;;;1.90;99.90;;;;;;4941264;29;20024;-87
2020/12/11 06:49:23;;;;;;;39.53;24.85;;;1.90;99.90;;;;;;4942099;29;20029;-87
2020/12/11 06:52:07;;;;;;;41.05;25.05;;;2.00;99.90;;;;;;4926585;29;20083;-86
2020/12/11 06:54:33;;;;;;;39.20;24.60;;;2.00;99.90;;;;;;4941818;29;20025;-88
2020/12/11 06:57:00;;;;;;;43.13;24.88;;;2.00;99.90;;;;;;4941592;29;20286;-89
2020/12/11 06:59:45;;;;;;;37.92;24.55;;;2.00;99.90;;;;;;4924053;29;20059;-92
2020/12/11 07:02:20;;;;;;;39.55;23.95;;;2.00;99.90;;;;;;4939824;29;20032;-88
2020/12/11 07:04:53;;;;;;;40.83;24.52;;;2.00;99.90;;;;;;4941099;29;20036;-87
2020/12/11 07:07:29;;;;;;;37.05;22.77;;;2.10;99.90;;;;;;4941351;29;20023;-87
2020/12/11 07:10:01;;;;;;;41.30;24.42;;;2.10;99.90;;;;;;4941417;29;20090;-93
2020/12/11 07:12:34;;;;;;;38.33;22.42;;;2.20;99.90;;;;;;4941493;29;20028;-87
2020/12/11 07:15:26;;;;;;;;;;;;;;;;;;;;;
2020/12/11 07:18:01;;;;;;;37.80;23.83;;;2.20;99.90;;;;;;4940848;29;20070;-88
2020/12/11 07:20:30;;;;;;;39.50;22.75;;;2.20;99.90;;;;;;4941195;29;20039;-88
2020/12/11 07:23:06;;;;;;;34.72;22.70;;;2.20;99.90;;;;;;4924790;29;20036;-89
2020/12/11 07:25:45;;;;;;;40.10;22.90;;;2.20;99.90;;;;;;4926435;29;20020;-88
2020/12/11 07:31:04;;;;;;;40.15;24.60;;;2.30;99.90;;;;;;4927286;29;20039;-88
2020/12/11 07:33:36;;;;;;;36.85;23.85;;;2.30;99.90;;;;;;4923333;29;20043;-88
2020/12/11 07:36:09;;;;;;;34.50;21.80;;;2.30;99.90;;;;;;4936902;29;20032;-87
2020/12/11 07:38:50;;;;;;;37.67;22.63;;;2.30;99.90;;;;;;4936059;29;20036;-87
2020/12/11 07:41:37;;;;;;;39.05;23.60;;;2.30;99.90;;;;;;4897685;29;20040;-87
2020/12/11 07:44:18;;;;;;;;;;;;;;;;;;;;;
2020/12/11 07:46:47;;;;;;;36.95;22.75;;;2.40;99.90;;;;;;4898858;29;20036;-88
2020/12/11 07:52:08;;;;;;;39.95;24.05;;;2.40;99.90;;;;;;4885082;29;20049;-88
2020/12/11 07:54:49;;;;;;;39.40;23.95;;;2.40;99.90;;;;;;4882391;29;20498;-86
2020/12/11 07:57:22;;;;;;;41.58;23.85;;;2.40;99.90;;;;;;4881475;29;20036;-86
2020/12/11 07:59:59;;;;;;;43.08;24.70;;;2.40;99.90;;;;;;4886637;29;20032;-86
2020/12/11 08:02:28;;;;;;;37.53;24.48;;;2.40;99.90;;;;;;4899451;29;20071;-88
2020/12/11 08:04:56;;;;;;;38.90;24.73;;;2.40;99.90;;;;;;4881810;29;20060;-88
2020/12/11 08:07:35;;;;;;;39.67;24.98;;;2.40;99.90;;;;;;4917621;29;20032;-88
2020/12/11 08:10:24;;;;;;;41.92;24.08;;;2.40;99.90;;;;;;4916799;29;20051;-86
2020/12/11 08:13:09;;;;;;;41.70;23.90;;;2.50;99.90;;;;;;4913806;29;20084;-88
2020/12/11 08:15:38;;;;;;;41.38;24.90;;;2.50;99.90;;;;;;4915125;29;20063;-88
2020/12/11 08:18:25;;;;;;;47.05;25.83;;;2.50;99.90;;;;;;4916932;29;20140;-88
2020/12/11 08:21:08;;;;;;;47.88;26.60;;;2.50;99.90;;;;;;4919239;29;20478;-88
2020/12/11 08:23:47;;;;;;;41.78;26.75;;;2.50;99.90;;;;;;4916984;29;20119;-86
2020/12/11 08:26:55;;;;;;;41.90;26.10;;;2.50;99.90;;;;;;4917339;29;20084;-88
2020/12/11 08:29:24;;;;;;;40.95;24.67;;;2.50;99.90;;;;;;4844868;29;20069;-86
2020/12/11 08:32:04;;;;;;;47.53;26.42;;;2.50;99.90;;;;;;4909352;29;20075;-89
2020/12/11 08:34:35;;;;;;;42.05;25.92;;;2.50;99.90;;;;;;4937165;29;20040;-87
2020/12/11 08:37:12;;;;;;;39.58;24.27;;;2.50;99.90;;;;;;4932235;29;20051;-88
2020/12/11 08:39:40;;;;;;;42.88;26.42;;;2.50;99.90;;;;;;4913849;29;20052;-88
2020/12/11 08:53:01;;;;;;;39.65;24.83;;;2.50;99.90;;;;;;4898807;29;20561;-87
2020/12/11 08:55:29;;;;;;;42.95;25.95;;;2.60;99.90;;;;;;4918951;29;20058;-88
2020/12/11 08:58:15;;;;;;;;;;;;;;;;;;;;;
2020/12/11 09:00:44;;;;;;;42.97;25.30;;;2.60;99.90;;;;;;4921708;29;20537;-88
2020/12/11 09:03:12;;;;;;;44.10;27.10;;;2.60;99.90;;;;;;4904203;29;20084;-89
2020/12/11 09:05:38;;;;;;;45.85;26.27;;;2.60;99.90;;;;;;4917092;29;20084;-88
2020/12/11 09:08:20;;;;;;;37.25;24.55;;;2.70;99.90;;;;;;4918409;29;20043;-88
2020/12/11 09:10:56;;;;;;;41.28;26.17;;;2.70;99.90;;;;;;4901768;29;20127;-90
2020/12/11 09:13:34;;;;;;;43.08;25.73;;;2.70;99.90;;;;;;4901779;29;20557;-87
2020/12/11 09:16:09;;;;;;;;;;;;;;;;;;;;;
2020/12/11 09:18:42;;;;;;;44.08;26.20;;;2.80;99.90;;;;;;4919840;29;20039;-90
2020/12/11 09:21:50;;;;;;;40.50;24.38;;;2.80;99.90;;;;;;4906832;29;20043;-92
2020/12/11 09:24:57;;;;;;;43.13;26.02;;;2.90;99.90;;;;;;4908506;29;20056;-91
2020/12/11 09:27:40;;;;;;;39.03;23.13;;;2.80;99.90;;;;;;4866792;29;20037;-87
2020/12/11 09:33:19;;;;;;;40.55;24.75;;;2.80;99.90;;;;;;4920586;29;20038;-86
2020/12/11 09:36:15;;;;;;;41.60;25.73;;;2.90;99.90;;;;;;4907774;29;20040;-90
2020/12/11 09:39:21;;;;;;;41.42;24.42;;;2.80;99.90;;;;;;4775775;30;20058;-90
2020/12/11 09:42:26;;;;;;;39.38;24.88;;;2.90;99.90;;;;;;4766889;30;20040;-88
2020/12/11 09:45:18;;;;;;;35.70;22.67;;;2.80;99.90;;;;;;4861087;29;20105;-87
2020/12/11 09:50:34;;;;;;;39.13;25.23;;;2.90;99.90;;;;;;4900041;29;20063;-87
2020/12/11 09:56:36;;;;;;;40.67;25.35;;;2.90;99.90;;;;;;4868524;29;20047;-89
2020/12/11 09:59:36;;;;;;;39.25;24.85;;;2.90;99.90;;;;;;4888718;29;20452;-90
2020/12/11 10:05:15;;;;;;;36.22;24.05;;;2.90;99.90;;;;;;4834444;29;20480;-88
2020/12/11 10:07:58;;;;;;;;;;;;;;;;;;;;;
2020/12/11 10:11:01;;;;;;;;;;;;;;;;;;;;;
2020/12/11 10:13:34;;;;;;;37.65;24.08;;;3.00;99.90;;;;;;4848688;29;20045;-87
2020/12/11 10:16:07;;;;;;;39.70;24.20;;;3.00;99.90;;;;;;4865112;29;20075;-87
2020/12/11 10:18:39;;;;;;;41.72;24.08;;;3.00;99.90;;;;;;4880549;29;20551;-88
2020/12/11 10:21:26;;;;;;;41.63;24.85;;;3.00;99.90;;;;;;4884229;29;20044;-90
2020/12/11 10:27:19;;;;;;;37.45;23.77;;;3.10;99.90;;;;;;4900209;29;20099;-88
2020/12/11 10:29:54;;;;;;;;;;;3.10;99.90;;;;;;4890641;29;20103;-89
2020/12/11 10:32:22;;;;;;;39.50;25.30;;;3.10;99.90;;;;;;4899672;29;19912;-87
2020/12/11 10:34:52;;;;;;;42.55;24.60;;;3.10;99.90;;;;;;4899491;29;20432;-88
2020/12/11 10:37:39;;;;;;;;;;;;;;;;;;;;;
2020/12/11 10:40:18;;;;;;;43.72;26.40;;;3.10;99.90;;;;;;4901802;29;20044;-88
2020/12/11 10:42:49;;;;;;;42.83;27.15;;;3.10;99.90;;;;;;4903518;29;20032;-87
2020/12/11 10:45:17;;;;;;;44.55;28.45;;;3.00;99.90;;;;;;4918809;29;20062;-87
2020/12/11 10:47:51;;;;;;;47.15;27.70;;;2.90;99.90;;;;;;4921300;29;20103;-86
2020/12/11 10:50:20;;;;;;;47.25;30.08;;;2.90;99.90;;;;;;4911858;29;20056;-87
2020/12/11 10:52:48;;;;;;;44.53;28.95;;;2.90;99.90;;;;;;4914856;29;20036;-88
2020/12/11 10:55:14;;;;;;;46.22;28.98;;;2.90;99.90;;;;;;4928061;29;20032;-92
2020/12/11 10:57:49;;;;;;;49.72;31.00;;;2.90;99.90;;;;;;4914582;29;20043;-85
2020/12/11 11:00:19;;;;;;;53.58;30.73;;;2.90;99.90;;;;;;4931796;29;20046;-91
2020/12/11 11:02:45;;;;;;;50.63;31.58;;;3.00;99.90;;;;;;4908837;29;20119;-86
2020/12/11 11:05:17;;;;;;;52.13;31.38;;;2.90;99.90;;;;;;4907746;29;20079;-86
2020/12/11 11:07:50;;;;;;;54.25;32.35;;;2.90;99.90;;;;;;4922025;29;20036;-87
2020/12/11 11:10:28;;;;;;;57.88;32.25;;;2.90;99.90;;;;;;4929733;29;20024;-94
2020/12/11 11:13:06;;;;;;;55.63;32.63;;;2.90;99.90;;;;;;4930146;29;20028;-85
2020/12/11 11:18:49;;;;;;;59.83;34.63;;;2.90;99.90;;;;;;4880971;29;20052;-86
2020/12/11 11:24:17;;;;;;;59.88;35.15;;;3.00;99.90;;;;;;4917983;29;20068;-86
2020/12/11 11:27:03;;;;;;;58.20;33.60;;;3.00;99.90;;;;;;4916929;29;20043;-86
2020/12/11 11:29:29;;;;;;;53.17;31.45;;;3.00;99.90;;;;;;4918344;29;20091;-85
2020/12/11 11:31:58;;;;;;;53.90;32.00;;;3.00;99.90;;;;;;4921032;29;20028;-87
2020/12/11 11:34:38;;;;;;;60.20;33.80;;;3.00;99.90;;;;;;4912723;29;20064;-85
2020/12/11 11:37:16;;;;;;;50.75;30.88;;;3.00;99.90;;;;;;4926747;29;20386;-84
2020/12/11 11:39:44;;;;;;;56.53;32.90;;;3.10;99.90;;;;;;4918209;29;20036;-84
2020/12/11 11:42:10;;;;;;;52.92;32.67;;;3.10;99.90;;;;;;4917909;29;20036;-85
2020/12/11 11:44:50;;;;;;;54.72;32.05;;;3.10;99.90;;;;;;4916606;29;20028;-85
2020/12/11 11:47:28;;;;;;;52.92;31.63;;;3.10;99.90;;;;;;4918211;29;20058;-87
2020/12/11 11:52:36;;;;;;;50.35;30.58;;;3.10;99.90;;;;;;4902938;29;20032;-85
2020/12/11 11:55:24;;;;;;;50.50;30.23;;;3.20;99.90;;;;;;4918457;29;20028;-84
2020/12/11 11:58:05;;;;;;;;;;;;;;;;;;;;;
2020/12/11 12:00:34;;;;;;;51.13;30.98;;;3.20;99.90;;;;;;4906699;29;20130;-86
2020/12/11 12:03:00;;;;;;;49.25;30.55;;;3.20;99.90;;;;;;4901878;29;20111;-87
2020/12/11 12:05:44;;;;;;;;;;;;;;;;;;;;;
2020/12/11 12:08:20;;;;;;;49.70;29.42;;;3.30;99.90;;;;;;4918675;29;20036;-87
2020/12/11 12:10:51;;;;;;;47.20;30.50;;;3.30;99.90;;;;;;4919827;29;20336;-86
2020/12/11 12:13:40;;;;;;;48.17;31.15;;;3.30;99.90;;;;;;4921051;29;20059;-88
2020/12/11 12:16:08;;;;;;;51.53;32.33;;;3.40;99.90;;;;;;4888132;29;20082;-87
2020/12/11 12:18:48;;;;;;;;;;;;;;;;;;;;;
2020/12/11 12:29:41;;;;;;;49.20;29.33;;;3.50;99.90;;;;;;4919105;29;20051;-88
2020/12/11 12:32:13;;;;;;;46.67;29.30;;;3.60;99.90;;;;;;4917542;29;20032;-87
2020/12/11 12:43:21;;;;;;;52.85;33.70;;;3.60;99.90;;;;;;4922301;29;20047;-87
2020/12/11 12:45:28;;;;;;;47.88;30.25;;;3.60;99.90;;;;;;4931138;29;20068;-88
2020/12/11 12:47:59;;;;;;;53.30;33.33;;;3.70;99.90;;;;;;4922693;29;20043;-87
2020/12/11 12:50:27;;;;;;;53.10;30.67;;;3.70;99.90;;;;;;4937195;29;20030;-88
2020/12/11 12:52:53;;;;;;;55.10;33.88;;;3.70;99.90;;;;;;4936619;29;20040;-88
2020/12/11 12:55:25;;;;;;;52.97;32.92;;;3.60;99.90;;;;;;4935495;29;20080;-87
2020/12/11 12:58:00;;;;;;;52.50;32.25;;;3.70;99.90;;;;;;4940034;29;20024;-88
2020/12/11 13:00:36;;;;;;;52.80;33.28;;;3.70;99.90;;;;;;4928720;29;20036;-86
2020/12/11 13:05:38;;;;;;;54.38;34.58;;;3.70;99.90;;;;;;4943737;29;20017;-93
2020/12/11 13:08:03;;;;;;;54.88;31.75;;;3.70;99.90;;;;;;4940724;29;20039;-88
2020/12/11 13:10:33;;;;;;;56.28;33.45;;;3.70;99.90;;;;;;4940521;29;20032;-89
2020/12/11 13:13:21;;;;;;;55.28;35.35;;;3.80;99.90;;;;;;4943157;29;20072;-89
2020/12/11 13:15:51;;;;;;;56.38;35.65;;;3.80;99.90;;;;;;4929464;29;20044;-88
2020/12/11 13:18:19;;;;;;;55.80;33.90;;;3.80;99.90;;;;;;4946800;29;20044;-87
2020/12/11 13:20:46;;;;;;;52.83;35.72;;;3.80;99.90;;;;;;4957679;29;20090;-87
2020/12/11 13:29:01;;;;;;;52.28;33.00;;;3.80;99.90;;;;;;4919465;29;20044;-87
2020/12/11 13:31:27;;;;;;;55.08;33.75;;;3.90;99.90;;;;;;4929963;29;20028;-85
2020/12/11 13:33:53;;;;;;;54.78;33.85;;;3.90;99.90;;;;;;4942854;29;20038;-86
2020/12/11 13:36:19;;;;;;;50.15;32.17;;;3.90;99.90;;;;;;4950893;29;20373;-87
2020/12/11 13:38:44;;;;;;;55.45;34.97;;;3.90;99.90;;;;;;4911228;29;20157;-88
2020/12/11 13:41:14;;;;;;;51.55;31.88;;;4.00;99.90;;;;;;4930872;29;20497;-87
2020/12/11 13:43:39;;;;;;;49.47;32.67;;;4.00;99.90;;;;;;4947760;29;20032;-86
2020/12/11 13:46:14;;;;;;;47.60;31.42;;;4.00;99.90;;;;;;4936042;29;20022;-86
2020/12/11 13:48:39;;;;;;;60.35;33.40;;;4.10;99.90;;;;;;4942926;29;20043;-86
2020/12/11 13:51:10;;;;;;;63.70;33.65;;;4.10;99.90;;;;;;4927447;29;20047;-86
2020/12/11 13:53:36;;;;;;;151.50;41.40;;;4.10;99.90;;;;;;4925902;29;20024;-89
2020/12/11 13:56:03;;;;;;;62.25;32.15;;;4.10;99.90;;;;;;4922476;29;20067;-87
2020/12/11 13:58:29;;;;;;;57.58;31.33;;;4.10;99.90;;;;;;4939595;29;20474;-86
2020/12/11 14:00:57;;;;;;;54.65;31.33;;;4.10;99.90;;;;;;4923201;29;20027;-86
2020/12/11 14:03:28;;;;;;;48.83;30.00;;;4.10;99.90;;;;;;4922841;29;20028;-87
2020/12/11 14:05:57;;;;;;;46.60;30.60;;;4.10;99.90;;;;;;4922598;29;20055;-86
2020/12/11 14:08:34;;;;;;;50.38;30.38;;;4.20;99.90;;;;;;4922235;29;20131;-87
2020/12/11 14:11:09;;;;;;;49.13;29.38;;;4.20;99.90;;;;;;4923126;29;20032;-88
2020/12/11 14:22:10;;;;;;;47.00;31.00;;;4.20;99.90;;;;;;4926226;29;20068;-87
2020/12/11 14:24:40;;;;;;;58.97;33.20;;;4.20;99.90;;;;;;4924049;29;20030;-87
2020/12/11 14:30:26;;;;;;;43.50;29.10;;;4.30;99.90;;;;;;4940885;29;20038;-90
2020/12/11 14:33:02;;;;;;;51.45;31.10;;;4.30;99.90;;;;;;4941666;29;20119;-87
2020/12/11 14:35:30;;;;;;;48.88;31.38;;;4.30;99.90;;;;;;4922884;29;20557;-87
2020/12/11 14:38:01;;;;;;;44.85;29.58;;;4.30;99.90;;;;;;4922744;29;20137;-87